Flight Track Log - Related Links

Times and Time Zones

All times are in EDT time to prevent confusion due to time zone crossing. See the FDX150 flight status page for this flight to view local times or setup timezone preferences in your user account.

Time Position Orientation Groundspeed Altitude Reporting Facility
EDT Latitude Longitude Course Direction KTS MPH feet Rate Location/Type
Fri 04:46:08 AM 39.7000 -86.3000 229° Southwest 175 201 1,500  Level Indianapolis TRACON
Fri 04:47:02 AM 39.6667 -86.3500 220° Southwest 222 255 3,400 3,158 Climbing Indianapolis TRACON
Fri 04:48:02 AM 39.6667 -86.4167 270° West 254 292 7,500 3,421 Climbing Indianapolis TRACON
Fri 04:48:49 AM 39.7131 -86.4350 343° North 281 323 9,500 2,243 Climbing Chicago Center
Fri 04:49:49 AM 39.7944 -86.3703 31° Northeast 336 387 11,500 1,800 Climbing Chicago Center
Fri 04:50:19 AM 39.8314 -86.3400 32° Northeast 353 406 12,200 2,733 Climbing Indianapolis Center
Fri 04:51:19 AM 39.9267 -86.2625 32° Northeast 389 448 15,600 2,926 Climbing Indianapolis Center
Fri 04:52:20 AM 40.0231 -86.1811 33° Northeast 405 466 18,100 2,311 Climbing Indianapolis Center
Fri 04:53:21 AM 40.1233 -86.0911 34° Northeast 429 494 20,300 2,231 Climbing Indianapolis Center
Fri 04:54:21 AM 40.2225 -85.9869 39° Northeast 450 518 22,600 2,400 Climbing Indianapolis Center
Fri 04:54:51 AM 40.2856 -85.9231 38° Northeast 466 536 23,900 2,200 Climbing Chicago Center
Fri 04:55:51 AM 40.3842 -85.8025 43° Northeast 482 555 25,900 1,884 Climbing Chicago Center
Fri 04:56:52 AM 40.4817 -85.6706 46° Northeast 499 574 27,700 1,736 Climbing Chicago Center
Fri 04:57:52 AM 40.5808 -85.5367 46° Northeast 510 587 29,400 1,600 Climbing Chicago Center
Fri 04:58:52 AM 40.6692 -85.4161 46° Northeast 518 596 30,900 1,636 Climbing Chicago Center
Fri 04:59:53 AM 40.7708 -85.2733 47° Northeast 532 612 32,700 1,686 Climbing Chicago Center
Fri 05:00:53 AM 40.8719 -85.1325 46° Northeast 534 615 34,300 1,140 Climbing Chicago Center
Fri 05:01:54 AM 40.9919 -84.9656 46° Northeast 530 610 35,000 347 Climbing Chicago Center
Fri 05:02:54 AM 41.0903 -84.8289 46° Northeast 523 602 35,000  Level Chicago Center
Fri 05:03:54 AM 41.1789 -84.6761 52° Northeast 523 602 35,000  Level Chicago Center
Fri 05:04:55 AM 41.2656 -84.5225 53° Northeast 524 603 35,000  Level Chicago Center
Fri 05:05:56 AM 41.3517 -84.3672 54° Northeast 524 603 35,000  Level Chicago Center
Fri 05:06:56 AM 41.4378 -84.2086 54° Northeast 529 609 35,000  Level Chicago Center
Fri 05:07:56 AM 41.5244 -84.0522 53° Northeast 529 609 35,000  Level Chicago Center
Fri 05:08:57 AM 41.6111 -83.8939 54° Northeast 529 609 35,000  Level Chicago Center
Fri 05:14:18 AM 42.0850 -83.0096 54° Northeast 531 611 35,000  Level FlightAware ADS-B (CYYZ)
Fri 05:14:48 AM 42.1259 -82.9340 54° Northeast 532 612 35,000  Level FlightAware ADS-B (CYYZ)
Fri 05:15:19 AM 42.1698 -82.8501 54° Northeast 532 612 35,000  Level FlightAware ADS-B (CYYZ)
Fri 05:15:48 AM 42.2107 -82.7714 54° Northeast 531 611 35,000  Level FlightAware ADS-B (CYYZ)
Fri 05:16:18 AM 42.2543 -82.6873 54° Northeast 533 613 35,000  Level FlightAware ADS-B (CYYZ)
Fri 05:16:48 AM 42.2976 -82.6055 55° Northeast 532 612 35,000  Level FlightAware ADS-B (CYYZ)
Fri 05:16:54 AM 42.2674 -82.6629 55° Northeast 534 615 35,000 -200 Level FlightAware ADS-B (EPLB / LUZ)
Fri 05:17:18 AM 42.3402 -82.5214 54° Northeast 533 613 34,900 -453 Descending FlightAware ADS-B (CYYZ)
Fri 05:17:47 AM 42.3810 -82.4448 55° Northeast 532 612 34,600 -632 Descending FlightAware ADS-B (CYYZ)
Fri 05:17:56 AM 42.3853 -82.4367 55° Northeast 533 613 34,500 -563 Descending FlightAware ADS-B (EPLB / LUZ)
Fri 05:18:19 AM 42.4245 -82.3604 55° Northeast 531 611 34,300 -692 Descending FlightAware ADS-B (CYYZ)
Fri 05:18:48 AM 42.4669 -82.2788 55° Northeast 532 612 33,900 -700 Descending FlightAware ADS-B (CYYZ)
Fri 05:19:19 AM 42.5094 -82.1966 55° Northeast 533 613 33,600 -700 Descending FlightAware ADS-B (CYYZ)
Fri 05:19:48 AM 42.5517 -82.1139 55° Northeast 537 618 33,200 -750 Descending FlightAware ADS-B (CYYZ)
Fri 05:19:51 AM 42.5473 -82.1223 55° Northeast 537 618 33,200 -600 Level FlightAware ADS-B (EPLB / LUZ)
Fri 05:20:18 AM 42.5942 -82.0306 55° Northeast 538 619 32,900 -706 Descending FlightAware ADS-B (CYYZ)
Fri 05:20:42 AM 42.6225 -81.9752 55° Northeast 539 620 32,600 -800 Descending FlightAware ADS-B (EPLB / LUZ)
Fri 05:20:48 AM 42.6369 -81.9445 55° Northeast 539 620 32,500 -667 Descending FlightAware ADS-B (CYYZ)
Fri 05:21:18 AM 42.6782 -81.8640 55° Northeast 537 618 32,200 -700 Descending FlightAware ADS-B (CYYZ)
Fri 05:21:48 AM 42.7215 -81.7809 55° Northeast 535 616 31,800 -700 Descending FlightAware ADS-B (CYYZ)
Fri 05:22:18 AM 42.7572 -81.7086 55° Northeast 534 615 31,500 -1,200 Descending FlightAware ADS-B (CYYZ)
Fri 05:22:53 AM 42.8115 -81.6006 55° Northeast 531 611 30,500 -1,875 Descending FlightAware ADS-B (CYYZ)
Fri 05:23:06 AM 42.8139 -81.5951 56° Northeast 530 610 30,000 -2,200 Descending FlightAware ADS-B (EPLB / LUZ)
Fri 05:23:23 AM 42.8526 -81.5182 55° Northeast 527 606 29,400 -2,087 Descending FlightAware ADS-B (CYYZ)
Fri 05:23:52 AM 42.8881 -81.4476 55° Northeast 521 600 28,400 -2,903 Descending FlightAware ADS-B (CYYZ)
Fri 05:23:54 AM 42.8801 -81.4638 56° Northeast 519 597 27,900 -2,516 Descending FlightAware ADS-B (EPLB / LUZ)
Fri 05:24:23 AM 42.9341 -81.3561 55° Northeast 513 590 27,100 -1,831 Descending FlightAware ADS-B (CYYZ)
Fri 05:24:53 AM 42.9745 -81.2762 55° Northeast 506 582 26,100 -2,204 Descending FlightAware ADS-B (CYYZ)
Fri 05:25:12 AM 42.9961 -81.2316 56° Northeast 500 575 25,300 -2,200 Descending FlightAware ADS-B (EPLB / LUZ)
Fri 05:25:23 AM 43.0138 -81.1979 55° Northeast 498 573 25,000 -2,049 Descending FlightAware ADS-B (CYYZ)
Fri 05:25:53 AM 43.0525 -81.1176 55° Northeast 492 566 23,900 -2,100 Descending FlightAware ADS-B (CYYZ)
Fri 05:26:23 AM 43.0926 -81.0467 51° Northeast 481 554 22,900 -2,063 Descending FlightAware ADS-B (CYYZ)
Fri 05:26:25 AM 43.0898 -81.0513 52° Northeast 480 552 22,800 -2,000 Descending FlightAware ADS-B (EPLB / LUZ)
Fri 05:26:53 AM 43.1332 -80.9752 52° Northeast 473 544 21,900 -1,814 Descending FlightAware ADS-B (CYYZ)
Fri 05:27:08 AM 43.1453 -80.9538 53° Northeast 470 541 21,500 -1,742 Descending FlightAware ADS-B (EPLB / LUZ)
Fri 05:27:24 AM 43.1742 -80.9017 53° Northeast 465 535 21,000 -1,867 Descending FlightAware ADS-B (CYYZ)
Fri 05:27:53 AM 43.2122 -80.8340 52° Northeast 458 527 20,100 -1,846 Descending FlightAware ADS-B (CYYZ)
Fri 05:28:03 AM 43.2244 -80.8110 53° Northeast 455 524 19,800 -2,000 Descending FlightAware ADS-B (EPLB / LUZ)
Fri 05:28:23 AM 43.2494 -80.7650 53° Northeast 449 517 19,100 -2,000 Descending FlightAware ADS-B (CYYZ)
Fri 05:28:33 AM 43.2616 -80.7422 54° Northeast 447 514 18,800 -1,742 Descending FlightAware ADS-B (CYKF)
Fri 05:28:54 AM 43.2875 -80.6947 53° Northeast 441 507 18,200 -1,800 Descending FlightAware ADS-B (CYYZ)
Fri 05:29:03 AM 43.2846 -80.7016 53° Northeast 438 504 17,900 -1,862 Descending FlightAware ADS-B (EPLB / LUZ)
Fri 05:29:23 AM 43.3230 -80.6304 53° Northeast 432 497 17,300 -1,773 Descending FlightAware ADS-B (CYYZ)
Fri 05:29:47 AM 43.3513 -80.5778 54° Northeast 428 493 16,600 -1,800 Descending FlightAware ADS-B (EPLB / LUZ)
Fri 05:29:53 AM 43.3592 -80.5625 53° Northeast 426 490 16,400 -1,714 Descending FlightAware ADS-B (CYYZ)
Fri 05:30:22 AM 43.3927 -80.5021 53° Northeast 419 482 15,600 -1,650 Descending FlightAware ADS-B (CYYZ)
Fri 05:30:33 AM 43.3974 -80.4935 54° Northeast 418 481 15,300 -1,742 Descending FlightAware ADS-B (CYKF)
Fri 05:30:53 AM 43.4283 -80.4365 53° Northeast 411 473 14,700 -1,565 Descending FlightAware ADS-B (CYYZ)
Fri 05:31:19 AM 43.4561 -80.3813 60° Northeast 404 465 14,100 -1,400 Descending FlightAware ADS-B (EPLB / LUZ)
Fri 05:31:23 AM 43.4592 -80.3722 62° Northeast 402 463 14,000 -1,000 Descending FlightAware ADS-B (CYYZ)
Fri 05:31:25 AM 43.4609 -80.3676 64° Northeast 402 463 14,000 -800 Level FlightAware ADS-B
Fri 05:31:53 AM 43.4791 -80.3021 70° East 386 444 13,600 -732 Descending FlightAware ADS-B (CYYZ)
Fri 05:32:06 AM 43.4870 -80.2722 69° East 379 436 13,500 -800 Descending FlightAware ADS-B
Fri 05:32:23 AM 43.4984 -80.2351 63° Northeast 368 423 13,200 -857 Descending FlightAware ADS-B (CYYZ)
Fri 05:32:34 AM 43.5077 -80.2128 59° Northeast 360 414 13,100 -1,400 Descending FlightAware ADS-B (CZBA)
Fri 05:32:53 AM 43.5246 -80.1787 55° Northeast 357 411 12,500 -1,935 Descending FlightAware ADS-B (CYYZ)
Fri 05:33:05 AM 43.5375 -80.1543 53° Northeast 378 435 12,100 -1,742 Descending FlightAware ADS-B
Fri 05:33:24 AM 43.5568 -80.1170 53° Northeast 383 441 11,600 -1,636 Descending FlightAware ADS-B (CYYZ)
Fri 05:33:27 AM 43.5584 -80.1150 53° Northeast 382 440 11,500 -1,034 Descending FlightAware ADS-B (EPLB / LUZ)
Fri 05:33:53 AM 43.5870 -80.0614 53° Northeast 365 420 11,100 -1,091 Descending FlightAware ADS-B (CYYZ)
Fri 05:34:00 AM 43.5948 -80.0483 53° Northeast 363 418 10,900 -1,000 Descending FlightAware ADS-B (CZBA)
Fri 05:34:23 AM 43.6173 -80.0069 53° Northeast 360 414 10,600 -909 Descending FlightAware ADS-B (CYYZ)
Fri 05:34:33 AM 43.6264 -79.9894 53° Northeast 341 392 10,400 -1,000 Descending FlightAware ADS-B (CYKF)
Fri 05:34:53 AM 43.6457 -79.9535 53° Northeast 328 377 10,100 -750 Descending FlightAware ADS-B (CYYZ)
Fri 05:35:05 AM 43.6559 -79.9352 54° Northeast 320 368 10,000 -800 Descending FlightAware ADS-B
Fri 05:35:08 AM 43.6585 -79.9304 53° Northeast 316 364 9,900 -1,333 Descending FlightAware ADS-B (CYYZ)
Fri 05:35:23 AM 43.6718 -79.9046 53° Northeast 309 356 9,600 -1,125 Descending FlightAware ADS-B (CYYZ)
Fri 05:35:24 AM 43.6722 -79.9046 53° Northeast 363 418 9,600 -1,600 Level FlightAware ADS-B (CZBA)
Fri 05:35:38 AM 43.6846 -79.8812 52° Northeast 301 346 9,200 -1,500 Descending FlightAware ADS-B (CYYZ)
Fri 05:35:48 AM 43.6922 -79.8676 52° Northeast 299 344 9,000 -1,600 Descending FlightAware ADS-B (EPLB / LUZ)
Fri 05:35:53 AM 43.6969 -79.8600 52° Northeast 298 343 8,800 -2,250 Descending FlightAware ADS-B (CYYZ)
Fri 05:36:04 AM 43.7064 -79.8418 53° Northeast 298 343 8,400 -1,875 Descending FlightAware ADS-B
Fri 05:36:09 AM 43.7100 -79.8357 52° Northeast 298 343 8,300 -1,579 Descending FlightAware ADS-B (CYYZ)
Fri 05:36:23 AM 43.7223 -79.8130 53° Northeast 293 337 7,900 -1,565 Descending FlightAware ADS-B (CYYZ)
Fri 05:36:32 AM 43.7287 -79.8009 54° Northeast 291 335 7,700 -1,600 Descending FlightAware ADS-B (EPLB / LUZ)
Fri 05:36:38 AM 43.7339 -79.7919 53° Northeast 289 333 7,500 -1,579 Descending FlightAware ADS-B (CYYZ)
Fri 05:36:51 AM 43.7441 -79.7728 53° Northeast 285 328 7,200 -1,600 Descending FlightAware ADS-B (EPLB / LUZ)
Fri 05:36:53 AM 43.7457 -79.7699 52° Northeast 285 328 7,100 -1,765 Descending FlightAware ADS-B (CYYZ)
Fri 05:37:08 AM 43.7579 -79.7482 52° Northeast 282 325 6,700 -1,263 Descending FlightAware ADS-B (CYYZ)
Fri 05:37:12 AM 43.7605 -79.7426 52° Northeast 280 322 6,700 -800 Level FlightAware ADS-B (EPLB / LUZ)
Fri 05:37:23 AM 43.7698 -79.7270 52° Northeast 273 314 6,500 -900 Descending FlightAware ADS-B (CYYZ)
Fri 05:37:32 AM 43.7754 -79.7159 54° Northeast 267 307 6,400 -400 Descending FlightAware ADS-B (EPLB / LUZ)
Fri 05:37:38 AM 43.7807 -79.7065 53° Northeast 261 300 6,400 -632 Level FlightAware ADS-B (CYYZ)
Fri 05:37:51 AM 43.7896 -79.6891 53° Northeast 258 297 6,200 -800 Descending FlightAware ADS-B (EPLB / LUZ)
Fri 05:37:53 AM 43.7915 -79.6865 52° Northeast 257 296 6,200 -706 Level FlightAware ADS-B (CYYZ)
Fri 05:38:08 AM 43.8026 -79.6657 52° Northeast 253 291 6,000 -667 Descending FlightAware ADS-B (CYYZ)
Fri 05:38:11 AM 43.8045 -79.6631 52° Northeast 254 292 6,000 -800 Level FlightAware ADS-B (EPLB / LUZ)
Fri 05:38:23 AM 43.8134 -79.6465 52° Northeast 253 291 5,800 -857 Descending FlightAware ADS-B (CYYZ)
Fri 05:38:32 AM 43.8197 -79.6350 52° Northeast 252 290 5,700 -750 Descending FlightAware ADS-B (CYKF)
Fri 05:38:39 AM 43.8241 -79.6273 52° Northeast 252 290 5,600 -857 Descending FlightAware ADS-B (CYYZ)
Fri 05:38:53 AM 43.8345 -79.6080 53° Northeast 245 282 5,400 -750 Descending FlightAware ADS-B (CYYZ)
Fri 05:39:03 AM 43.8411 -79.5956 54° Northeast 239 275 5,300 -400 Descending FlightAware ADS-B (EPLB / LUZ)
Fri 05:39:08 AM 43.8442 -79.5907 53° Northeast 236 272 5,300 -400 Level FlightAware ADS-B (CYYZ)
Fri 05:39:18 AM 43.8498 -79.5766 65° Northeast 234 269 5,200 -800 Descending FlightAware ADS-B (CYYZ)
Fri 05:39:23 AM 43.8513 -79.5708 74° East 234 269 5,100 -1,000 Descending FlightAware ADS-B (CYYZ)
Fri 05:39:24 AM 43.8514 -79.5695 77° East 235 270 5,100 -1,200 Level FlightAware ADS-B (EPLB / LUZ)
Fri 05:39:28 AM 43.8519 -79.5635 87° East 234 269 5,000 -667 Descending FlightAware ADS-B (CYYZ)
Fri 05:39:33 AM 43.8516 -79.5560 97° East 231 266 5,000 -900 Level FlightAware ADS-B (CYYZ)
Fri 05:39:48 AM 43.8489 -79.5343 101° East 225 259 4,700 -1,200 Descending FlightAware ADS-B (CYYZ)
Fri 05:39:53 AM 43.8473 -79.5260 109° East 226 260 4,600 -1,091 Descending FlightAware ADS-B (CYYZ)
Fri 05:39:59 AM 43.8452 -79.5207 120° Southeast 226 260 4,500 -857 Descending FlightAware ADS-B (CYYZ)
Fri 05:40:00 AM 43.8449 -79.5194 121° Southeast 226 260 4,500 -1,500 Level FlightAware ADS-B (EPLB / LUZ)
Fri 05:40:03 AM 43.8420 -79.5149 132° Southeast 222 255 4,400 -1,500 Descending FlightAware ADS-B (CYYZ)
Fri 05:40:08 AM 43.8384 -79.5099 139° Southeast 217 250 4,300 -706 Descending FlightAware ADS-B (CYYZ)
Fri 05:40:20 AM 43.8299 -79.4994 141° Southeast 208 239 4,200 -800 Descending FlightAware ADS-B (EPLB / LUZ)
Fri 05:40:23 AM 43.8268 -79.4972 149° Southeast 207 238 4,100 -1,500 Descending FlightAware ADS-B (CYYZ)
Fri 05:40:28 AM 43.8228 -79.4941 158° South 206 237 4,000 -1,333 Descending FlightAware ADS-B (CYYZ)
Fri 05:40:32 AM 43.8299 -79.4994 162° South 206 237 3,900 -1,200 Descending FlightAware ADS-B (CYKF)
Fri 05:40:33 AM 43.8179 -79.4916 165° South 204 235 3,900 -1,000 Level FlightAware ADS-B (CYYZ)
Fri 05:40:38 AM 43.8132 -79.4907 173° South 201 231 3,800 -1,000 Descending FlightAware ADS-B (CYYZ)
Fri 05:40:39 AM 43.8128 -79.4907 175° South 201 231 3,800 -1,200 Level FlightAware ADS-B (EPLB / LUZ)
Fri 05:40:43 AM 43.8087 -79.4907 183° South 196 226 3,700 -1,333 Descending FlightAware ADS-B (CYYZ)
Fri 05:40:48 AM 43.8043 -79.4912 189° South 191 220 3,600 -600 Descending FlightAware ADS-B (CYYZ)
Fri 05:40:53 AM 43.8004 -79.4926 196° South 187 215 3,600 -1,000 Level FlightAware ADS-B (CYYZ)
Fri 05:41:00 AM 43.7955 -79.4946 197° South 184 212 3,400 -1,091 Descending FlightAware ADS-B (EPLB / LUZ)
Fri 05:41:04 AM 43.7917 -79.4965 202° Southwest 181 208 3,400 -1,500 Level FlightAware ADS-B (CYYZ)
Fri 05:41:08 AM 43.7882 -79.4984 207° Southwest 180 207 3,200 -1,800 Descending FlightAware ADS-B (CYYZ)
Fri 05:41:14 AM 43.7846 -79.5021 218° Southwest 177 204 3,100 -1,200 Descending FlightAware ADS-B (CYYZ)
Fri 05:41:18 AM 43.7817 -79.5051 224° Southwest 175 201 3,000 -600 Descending FlightAware ADS-B (CYYZ)
Fri 05:41:24 AM 43.7789 -79.5091 229° Southwest 173 199 3,000 -286 Level FlightAware ADS-B (CYYZ)
Fri 05:41:39 AM 43.7710 -79.5227 230° Southwest 174 200 2,900 -600 Descending FlightAware ADS-B (CYYZ)
Fri 05:41:44 AM 43.7695 -79.5252 228° Southwest 176 203 2,800 -1,200 Descending FlightAware ADS-B (EPLB / LUZ)
Fri 05:41:54 AM 43.7627 -79.5352 227° Southwest 178 205 2,600 -1,263 Descending FlightAware ADS-B (CYYZ)
Fri 05:42:03 AM 43.7575 -79.5427 227° Southwest 178 205 2,400 -1,200 Descending FlightAware ADS-B (EPLB / LUZ)
Fri 05:42:09 AM 43.7544 -79.5468 227° Southwest 179 206 2,300 -857 Descending FlightAware ADS-B (CYYZ)
Fri 05:42:24 AM 43.7455 -79.5602 228° Southwest 176 203 2,100 -1,034 Descending FlightAware ADS-B (CYYZ)
Fri 05:42:38 AM 43.7377 -79.5716 227° Southwest 174 200 1,800 -1,200 Descending FlightAware ADS-B (CYYZ)
Fri 05:42:44 AM 43.7345 -79.5757 226° Southwest 173 199 1,700 -800 Descending FlightAware ADS-B (EPLB / LUZ)
Fri 05:42:53 AM 43.7293 -79.5835 227° Southwest 165 190 1,600 -947 Descending FlightAware ADS-B (CYYZ)
Fri 05:43:03 AM 43.7260 -79.5881 226° Southwest 160 184 1,400 -750 Descending FlightAware ADS-B (EPLB / LUZ)
Fri 05:43:09 AM 43.7211 -79.5954 226° Southwest 156 180 1,400 -600 Level FlightAware ADS-B (CYYZ)
Fri 05:43:23 AM 43.7157 -79.6034 227° Southwest 153 176 1,200 -882 Descending FlightAware ADS-B (CYYZ)
Fri 05:43:43 AM 43.7046 -79.6195 227° Southwest 149 171 900 -500 Descending FlightAware ADS-B (CYYZ)
Fri 05:44:47 AM 43.6667 -79.6333 227° Southwest 150 173 500 -375 Descending Toronto Center

Login

Don't have an account? Register now (free) for customized features, flight alerts, and more!